Weather observations for the past three days for
Hastings, Hastings Municipal Airport
Imperial (Metric)
Date Time (cdt) Wind (mph) Vis. (mi.) Weather Sky Cond. Temperature (ºF) Relative Humidity Wind Chill (°F) Heat Index (°F) Pressure Precipitation (in)
Air Dwpt 6 hour altimeter (in) sea level (mb) 1 hr 3 hr 6 hr
Max. Min.
04 19:53 SE 7 10.00 Fair CLR 89.1 73.9 61% 98 29.9 1010.3
04 18:53 SE 9 10.00 Fair CLR 90 73 93.9 89.1 58% 98 29.89 1010.0
04 17:53 SE 9 G 21 10.00 Fair CLR 91.9 72 52% 100 29.89 1009.9
04 16:53 SE 9 G 21 10.00 A Few Clouds FEW120 93.9 73 51% 103 29.88 1009.7
04 15:53 SE 7 10.00 Mostly Cloudy FEW070 SCT090 BKN110 89.1 72 57% 96 29.9 1010.3
04 14:53 SE 8 9.00 Mostly Cloudy BKN110 89.1 72 57% 96 29.9 1010.4
04 13:53 S 6 10.00 Fair CLR 91 71.1 52% 98 29.93 1011.2
04 12:53 Vrbl 5 10.00 Fair CLR 90 71.1 90 73 54% 96 29.94 1011.5
04 11:53 SW 5 10.00 Fair CLR 88 70 55% 93 29.94 1011.5
04 10:53 S 7 10.00 Fair CLR 84 70 63% 88 29.93 1011.5
04 09:53 S 9 10.00 Fair CLR 81 69.1 67% 84 29.93 1011.4
04 08:53 S 8 10.00 Fair CLR 77 69.1 77% 79 29.92 1011.3
04 07:53 S 6 10.00 A Few Clouds FEW110 73 66.9 81% 29.91 1010.9
04 06:53 S 7 10.00 Fair CLR 73 66.9 77 73 81% 29.9 1010.1
04 05:53 S 6 10.00 Fair CLR 75 66.9 76% 76 29.89 1009.8
04 04:53 S 7 10.00 Fair CLR 75.9 66 72% 77 29.89 1009.6
04 03:53 S 5 10.00 Fair CLR 77 66 69% 79 29.88 1009.3
04 02:53 S 8 10.00 Fair CLR 77 64.9 66% 79 29.87 1009.2
04 01:53 S 7 10.00 Fair CLR 75 66 74% 76 29.87 1009.3
04 00:53 S 5 10.00 Fair CLR 77 66 96.1 77 69% 79 29.86 1008.7
03 23:53 S 7 10.00 Fair CLR 80.1 66 62% 82 29.84 1008.2
03 22:53 Calm 10.00 Fair CLR 77 70 79% 79 29.84 1008.3
03 21:53 N 5 10.00 Fair CLR 79 71.1 77% 82 29.83 1007.8
03 20:53 NE 6 10.00 Fair CLR 80.1 72 76% 84 29.81 1007.5
03 19:53 N 6 10.00 Fair CLR 87.1 73.9 65% 95 29.79 1006.5
03 18:53 SW 3 10.00 Fair CLR 96.1 66 97 90 37% 100 29.78 1006.0
03 17:53 S 7 10.00 Fair CLR 96.1 66 37% 100 29.77 1005.7
03 16:53 S 7 10.00 Fair CLR 97 64.9 35% 100 29.78 1005.8
03 15:53 S 10 10.00 Fair CLR 96.1 66 37% 100 29.79 1006.3
03 14:53 S 12 10.00 Fair CLR 93.9 66.9 41% 98 29.81 1006.9
03 13:53 SW 14 G 23 10.00 Fair CLR 91.9 66 43% 95 29.82 1007.4
03 12:53 SW 16 G 23 10.00 Fair CLR 90 64.9 91 73 44% 92 29.84 1008.2
03 11:53 SW 9 G 21 10.00 Fair CLR 88 66 48% 90 29.85 1008.6
03 10:53 S 12 G 23 10.00 Fair CLR 84.9 66 53% 87 29.85 1008.3
03 09:53 S 10 G 17 10.00 Fair CLR 82 66 58% 84 29.85 1008.6
03 08:53 S 5 10.00 Fair CLR 78.1 64.9 64% 80 29.86 1009.0
03 07:53 S 7 10.00 Fair CLR 73.9 63 69% 29.85 1008.5
03 06:53 S 8 10.00 Fair CLR 73 63 80.1 73 71% 29.84 1008.4
03 05:53 S 7 10.00 Fair CLR 73.9 63 69% 29.85 1008.4
03 04:53 S 8 10.00 Fair CLR 75 63 66% 77 29.85 1008.2
03 03:53 S 8 10.00 Fair CLR 78.1 63 60% 80 29.85 1008.3
03 02:53 S 10 10.00 Fair CLR 79 62.1 56% 80 29.85 1008.2
03 01:53 S 9 10.00 Fair CLR 79 62.1 56% 80 29.85 1008.3
03 00:53 S 9 10.00 Fair CLR 79 62.1 91.9 78.1 56% 80 29.85 1008.3
02 23:53 S 10 10.00 Fair CLR 80.1 62.1 54% 81 29.85 1008.5
02 22:53 S 10 10.00 Fair CLR 82 62.1 51% 83 29.84 1008.3
02 21:53 SE 12 10.00 Fair CLR 84 62.1 48% 85 29.84 1008.1
02 20:53 SE 12 10.00 Fair CLR 87.1 62.1 43% 88 29.82 1007.6
02 19:53 S 9 10.00 Fair CLR 90 62.1 39% 90 29.81 1007.1
02 18:53 S 8 10.00 Fair CLR 91.9 64 97 89.1 40% 94 29.81 1007.2
02 17:53 S 6 10.00 Fair CLR 93.9 64.9 38% 96 29.81 1007.3
02 16:53 S 9 10.00 Partly Cloudy SCT100 96.1 64.9 36% 99 29.83 1007.7
02 15:53 S 7 10.00 Fair CLR 95 66.9 40% 99 29.85 1008.5
02 14:53 S 9 10.00 Fair CLR 93 66 41% 96 29.88 1009.4
02 13:53 S 12 G 21 10.00 Fair CLR 91 64.9 42% 93 29.9 1010.0
02 12:53 S 9 10.00 Fair CLR 89.1 66 89.1 72 47% 92 29.91 1010.7
02 11:53 SW 8 10.00 Fair CLR 86 66 51% 88 29.92 1011.0
02 10:53 SW 10 G 18 10.00 Fair CLR 82 64 55% 84 29.93 1011.3
02 09:53 S 9 10.00 Fair CLR 79 63 58% 81 29.92 1011.2
02 08:53 S 6 10.00 Fair CLR 73.9 62.1 67% 29.93 1011.6
02 07:53 SW 6 10.00 Fair CLR 73 61 66% 29.93 1011.3
02 06:53 S 7 10.00 A Few Clouds FEW120 72 61 77 72 68% 29.92 1010.9
02 05:53 S 7 10.00 Fair CLR 72 61 68% 29.91 1010.6
02 04:53 SW 7 10.00 Fair CLR 72 60.1 66% 29.91 1010.7
02 03:53 S 8 10.00 A Few Clouds FEW120 73 60.1 64% 29.9 1010.4
02 02:53 S 8 10.00 Fair CLR 75 60.1 60% 77 29.9 1010.4
02 01:53 S 9 10.00 Fair CLR 75.9 60.1 58% 78 29.9 1010.4
02 00:53 S 8 10.00 Fair CLR 77 60.1 91.9 77 56% 79 29.9 1010.3
01 23:53 S 7 10.00 Fair CLR 77 61 58% 79 29.91 1010.7
01 22:53 S 7 10.00 Fair CLR 79 62.1 56% 80 29.91 1010.9
01 21:53 S 9 10.00 Fair CLR 82 64 55% 84 29.9 1010.4
01 20:53 S 7 10.00 Mostly Cloudy BKN110 86 66 51% 88 29.88 1009.8
Date Time (cdt) Wind (mph) Vis. (mi.) Weather Sky Cond. Air Dwpt Max. Min. Relative Humidity Wind Chill (°F) Heat Index (°F) altimeter (in) sea level (mb) 1 hr 3 hr 6 hr
6 hour
Temperature (ºF) Pressure Precipitation (in)